Napanee, Canada
Current Conditions -  °F | °C
As of 3:46 PM on Thursday 27 Nov 2014 (Local Time) from CYGK Reporting Station
Snow Showers Snow Showers  
Wind Chill: 28°   Ceiling: 1400
Heat Index: 28°   Visibility: 1mi
Dew Point: 27°   Wind: 2mph
Humidity: 93%   Direction: 350°N
Pressure: 30.05"   Gusts: NA
Location:  44.25°N, 76.95°W
Report Text: CYGK 272046Z 35002KT 1SM -SHSN OVC014 M02/M03 A3005 RMK SN2SC6 SLP180
Loading
Personal Weather Stations






























Interactive Weather Map New forecast layout! Learn more

10-Day Weather Forecast

Advertisements
Track Severe Weather on mobile